createdAt,value
2022-08-31T00:00:33.848Z,101580.28
2022-08-31T00:03:19.465Z,101582.94
2022-08-31T00:05:47.693Z,101575.47
2022-08-31T00:08:14.733Z,101584.91
2022-08-31T00:10:43.245Z,101572.44
2022-08-31T00:13:12.736Z,101576.31
2022-08-31T00:15:39.784Z,101575.00
2022-08-31T00:18:06.858Z,101571.03
2022-08-31T00:20:34.789Z,101574.44
2022-08-31T00:23:04.127Z,101563.16
2022-08-31T00:25:31.654Z,101560.88
2022-08-31T00:27:58.812Z,101578.88
2022-08-31T00:30:25.792Z,101572.63
2022-08-31T00:32:52.749Z,101565.84
2022-08-31T00:35:19.537Z,101568.00
2022-08-31T00:37:48.108Z,101567.88
2022-08-31T00:40:14.936Z,101558.88
2022-08-31T00:42:42.833Z,101564.75
2022-08-31T00:45:10.452Z,101553.78
2022-08-31T00:47:37.454Z,101553.84
2022-08-31T00:50:07.721Z,101567.88
2022-08-31T00:52:38.270Z,101556.28
2022-08-31T00:55:13.683Z,101554.69
2022-08-31T00:57:43.608Z,101560.09
2022-08-31T01:00:17.882Z,101565.91
2022-08-31T01:02:45.087Z,101556.41
2022-08-31T01:05:13.315Z,101554.31
2022-08-31T01:07:40.968Z,101559.25
2022-08-31T01:10:08.640Z,101558.81
2022-08-31T01:12:35.451Z,101565.03
2022-08-31T01:15:05.876Z,101563.53
2022-08-31T01:17:34.307Z,101564.81
2022-08-31T01:20:08.193Z,101556.41
2022-08-31T01:22:44.823Z,101558.97
2022-08-31T01:25:12.121Z,101557.28
2022-08-31T01:27:38.798Z,101559.59
2022-08-31T01:30:10.409Z,101560.41
2022-08-31T01:32:38.643Z,101570.19
2022-08-31T01:35:07.448Z,101566.72
2022-08-31T01:37:38.868Z,101564.50
2022-08-31T01:40:07.438Z,101567.84
2022-08-31T01:42:34.635Z,101560.06
2022-08-31T01:45:02.474Z,101564.59
2022-08-31T01:47:29.328Z,101565.59
2022-08-31T01:49:57.652Z,101559.53
2022-08-31T01:52:27.697Z,101569.44
2022-08-31T01:54:55.954Z,101576.91
2022-08-31T01:57:33.347Z,101576.00
2022-08-31T02:00:28.783Z,101579.28
2022-08-31T02:03:00.421Z,101573.19
2022-08-31T02:05:28.368Z,101580.47
2022-08-31T02:07:56.942Z,101575.00
2022-08-31T02:10:25.106Z,101573.31
2022-08-31T02:12:52.295Z,101563.81
2022-08-31T02:15:29.385Z,101565.72
2022-08-31T02:17:56.611Z,101569.13
2022-08-31T02:20:23.692Z,101568.06
2022-08-31T02:22:50.819Z,101565.53
2022-08-31T02:25:17.847Z,101553.03
2022-08-31T02:27:45.046Z,101567.91
2022-08-31T02:30:15.540Z,101566.09
2022-08-31T02:32:42.427Z,101574.44
2022-08-31T02:35:10.279Z,101570.28
2022-08-31T02:37:37.345Z,101569.38
2022-08-31T02:40:09.032Z,101570.47
2022-08-31T02:42:52.925Z,101570.00
2022-08-31T02:45:24.666Z,101569.47
2022-08-31T02:47:54.299Z,101579.00
2022-08-31T02:50:44.467Z,101571.22
2022-08-31T02:53:12.894Z,101573.47
2022-08-31T02:55:40.572Z,101570.56
2022-08-31T02:58:07.289Z,101575.38
2022-08-31T03:00:34.492Z,101572.56
2022-08-31T03:03:02.936Z,101568.56
2022-08-31T03:05:30.449Z,101573.84
2022-08-31T03:07:57.204Z,101570.59
2022-08-31T03:10:25.385Z,101563.44
2022-08-31T03:12:53.376Z,101571.00
2022-08-31T03:15:24.072Z,101571.63
2022-08-31T03:17:51.473Z,101566.19
2022-08-31T03:20:23.000Z,101564.97
2022-08-31T03:22:50.728Z,101566.56
2022-08-31T03:25:19.903Z,101578.25
2022-08-31T03:27:46.809Z,101573.03
2022-08-31T03:30:20.171Z,101570.66
2022-08-31T03:33:02.404Z,101566.31
2022-08-31T03:35:31.975Z,101572.06
2022-08-31T03:37:58.804Z,101565.03
2022-08-31T03:40:25.748Z,101565.69
2022-08-31T03:42:52.775Z,101568.13
2022-08-31T03:45:20.226Z,101575.53
2022-08-31T03:47:46.953Z,101570.06
2022-08-31T03:50:16.210Z,101572.16
2022-08-31T03:53:07.478Z,101569.81
2022-08-31T03:55:37.047Z,101570.41
2022-08-31T03:58:05.274Z,101562.81
2022-08-31T04:00:34.234Z,101563.66
2022-08-31T04:03:05.941Z,101569.03
2022-08-31T04:05:35.845Z,101571.78
2022-08-31T04:08:12.280Z,101578.09
2022-08-31T04:10:47.463Z,101571.94
2022-08-31T04:13:20.145Z,101578.59
2022-08-31T04:16:16.665Z,101573.06
2022-08-31T04:19:02.817Z,101566.97
2022-08-31T04:21:38.697Z,101577.34
2022-08-31T04:24:08.181Z,101578.59
2022-08-31T04:26:37.426Z,101577.66
2022-08-31T04:29:09.605Z,101582.13
2022-08-31T04:31:39.155Z,101571.91
2022-08-31T04:34:05.861Z,101574.31
2022-08-31T04:36:32.800Z,101574.53
2022-08-31T04:39:01.044Z,101587.34
2022-08-31T04:41:30.941Z,101585.25
2022-08-31T04:44:00.116Z,101578.94
2022-08-31T04:46:27.813Z,101583.09
2022-08-31T04:48:55.634Z,101583.38
2022-08-31T04:51:25.925Z,101580.31
2022-08-31T04:53:53.533Z,101591.34
2022-08-31T04:56:23.353Z,101593.66
2022-08-31T04:58:52.573Z,101592.13
2022-08-31T05:01:24.739Z,101589.25
2022-08-31T05:04:12.486Z,101592.38
2022-08-31T05:06:41.509Z,101592.19
2022-08-31T05:09:14.974Z,101599.31
2022-08-31T05:11:44.726Z,101599.94
2022-08-31T05:14:11.757Z,101598.72
2022-08-31T05:16:42.928Z,101599.59
2022-08-31T05:19:09.906Z,101602.28
2022-08-31T05:21:39.750Z,101597.28
2022-08-31T05:24:10.202Z,101600.69
2022-08-31T05:26:44.456Z,101602.63
2022-08-31T05:29:14.181Z,101602.34
2022-08-31T05:31:42.325Z,101599.97
2022-08-31T05:34:12.614Z,101594.09
2022-08-31T05:36:40.077Z,101600.81
2022-08-31T05:39:09.474Z,101600.69
2022-08-31T05:41:36.432Z,101594.66
2022-08-31T05:44:05.258Z,101605.41
2022-08-31T05:46:34.813Z,101603.50
2022-08-31T05:49:03.876Z,101602.44
2022-08-31T05:51:34.922Z,101602.44
2022-08-31T05:54:05.117Z,101604.16
2022-08-31T05:56:33.045Z,101607.13
2022-08-31T05:58:59.975Z,101606.22
2022-08-31T06:01:30.396Z,101605.66
2022-08-31T06:04:27.636Z,101606.34
2022-08-31T06:06:54.797Z,101594.22
2022-08-31T06:09:25.022Z,101599.22
2022-08-31T06:11:52.336Z,101595.75
2022-08-31T06:14:22.853Z,101603.63
2022-08-31T06:16:51.085Z,101607.22
2022-08-31T06:19:19.912Z,101602.81
2022-08-31T06:21:50.928Z,101603.28
2022-08-31T06:24:25.979Z,101597.88
2022-08-31T06:26:59.154Z,101602.72
2022-08-31T06:29:31.616Z,101599.47
2022-08-31T06:32:00.540Z,101599.69
2022-08-31T06:34:29.277Z,101609.38
2022-08-31T06:37:22.147Z,101617.28
2022-08-31T06:39:53.811Z,101608.31
2022-08-31T06:42:50.131Z,101621.53
2022-08-31T06:45:52.358Z,101619.06
2022-08-31T06:48:42.151Z,101624.22
2022-08-31T06:51:10.321Z,101632.25
2022-08-31T06:53:42.422Z,101636.22
2022-08-31T06:56:32.438Z,101628.97
2022-08-31T06:59:17.726Z,101641.78
2022-08-31T07:02:00.299Z,101642.97
2022-08-31T07:04:38.468Z,101646.31
2022-08-31T07:07:07.203Z,101653.31
2022-08-31T07:09:35.890Z,101660.31
2022-08-31T07:12:04.188Z,101658.72
2022-08-31T07:14:30.921Z,101661.00
2022-08-31T07:16:59.927Z,101662.53
2022-08-31T07:19:27.509Z,101666.47
2022-08-31T07:21:58.514Z,101664.78
2022-08-31T07:24:30.418Z,101668.50
2022-08-31T07:27:05.356Z,101666.31
2022-08-31T07:29:42.228Z,101661.16
2022-08-31T07:32:13.919Z,101666.72
2022-08-31T07:34:41.828Z,101666.78
2022-08-31T07:37:53.124Z,101670.44
2022-08-31T07:40:43.211Z,101676.97
2022-08-31T07:43:13.099Z,101678.50
2022-08-31T07:45:41.113Z,101676.06
2022-08-31T07:48:08.822Z,101679.41
2022-08-31T07:50:49.578Z,101690.38
2022-08-31T07:53:32.351Z,101689.28
2022-08-31T07:56:18.050Z,101687.91
2022-08-31T07:58:47.954Z,101693.16
2022-08-31T08:01:15.322Z,101696.41
2022-08-31T08:03:44.095Z,101695.72
2022-08-31T08:06:32.462Z,101691.75
2022-08-31T08:09:30.079Z,101697.75
2022-08-31T08:12:07.394Z,101690.84
2022-08-31T08:14:54.783Z,101690.44
2022-08-31T08:17:30.070Z,101697.13
2022-08-31T08:20:05.340Z,101697.59
2022-08-31T08:22:51.549Z,101693.38
2022-08-31T08:25:39.094Z,101692.25
2022-08-31T08:31:06.707Z,101681.75
2022-08-31T08:33:35.514Z,101688.75
2022-08-31T08:36:07.828Z,101684.09
2022-08-31T08:38:39.644Z,101686.63
2022-08-31T08:41:12.479Z,101681.66
2022-08-31T08:43:43.779Z,101693.91
2022-08-31T08:46:33.838Z,101683.19
2022-08-31T08:49:13.431Z,101683.66
2022-08-31T08:51:40.929Z,101679.59
2022-08-31T08:54:12.381Z,101685.28
2022-08-31T08:56:47.143Z,101684.91
2022-08-31T08:59:19.974Z,101686.44
2022-08-31T09:01:50.792Z,101684.78
2022-08-31T09:04:41.248Z,101694.56
2022-08-31T09:07:44.478Z,101696.03
2022-08-31T09:10:34.527Z,101691.81
2022-08-31T09:13:19.967Z,101688.22
2022-08-31T09:16:20.628Z,101688.34
2022-08-31T09:19:00.196Z,101691.84
2022-08-31T09:21:33.636Z,101690.63
2022-08-31T09:24:20.126Z,101688.06
2022-08-31T09:27:18.774Z,101684.03
2022-08-31T09:29:45.481Z,101687.91
2022-08-31T09:32:24.751Z,101676.56
2022-08-31T09:35:03.782Z,101676.25
2022-08-31T09:37:46.206Z,101681.47
2022-08-31T09:40:21.150Z,101670.06
2022-08-31T09:43:06.549Z,101668.22
2022-08-31T09:45:41.294Z,101670.72
2022-08-31T09:48:09.470Z,101667.06
2022-08-31T09:50:45.107Z,101676.94
2022-08-31T09:53:40.966Z,101665.97
2022-08-31T09:56:15.741Z,101666.91
2022-08-31T09:58:50.475Z,101673.06
2022-08-31T10:01:25.265Z,101670.16
2022-08-31T10:04:30.125Z,101674.44
2022-08-31T10:07:15.485Z,101664.28
2022-08-31T10:09:48.789Z,101664.47
2022-08-31T10:12:50.563Z,101659.94
2022-08-31T10:15:30.963Z,101656.75
2022-08-31T10:18:24.541Z,101664.44
2022-08-31T10:21:15.276Z,101658.13
2022-08-31T10:23:56.612Z,101657.41
2022-08-31T10:26:31.874Z,101660.50
2022-08-31T10:29:01.520Z,101660.88
2022-08-31T10:31:32.043Z,101673.28
2022-08-31T10:34:22.935Z,101669.06
2022-08-31T10:36:52.971Z,101657.53
2022-08-31T10:39:41.304Z,101662.44
2022-08-31T10:42:12.348Z,101668.09
2022-08-31T10:44:56.852Z,101658.19
2022-08-31T10:47:32.878Z,101649.97
2022-08-31T10:50:03.528Z,101656.84
2022-08-31T10:52:35.174Z,101652.44
2022-08-31T10:55:18.459Z,101654.28
2022-08-31T10:58:02.906Z,101653.31
2022-08-31T11:00:50.053Z,101657.53
2022-08-31T11:03:52.863Z,101663.38
2022-08-31T11:06:32.960Z,101648.22
2022-08-31T11:09:09.284Z,101654.94
2022-08-31T11:11:52.019Z,101644.53
2022-08-31T11:14:45.349Z,101659.78
2022-08-31T11:17:50.331Z,101658.16
2022-08-31T11:20:40.975Z,101649.53
2022-08-31T11:23:13.809Z,101651.38
2022-08-31T11:26:08.223Z,101644.75
2022-08-31T11:28:42.209Z,101635.69
2022-08-31T11:31:23.771Z,101627.31
2022-08-31T11:34:15.602Z,101634.84
2022-08-31T11:36:48.970Z,101624.69
2022-08-31T11:39:18.931Z,101620.34
2022-08-31T11:41:49.146Z,101626.56
2022-08-31T11:44:37.051Z,101616.19
2022-08-31T11:47:08.308Z,101611.41
2022-08-31T11:49:45.265Z,101622.88
2022-08-31T11:52:38.322Z,101612.03
2022-08-31T11:55:15.212Z,101620.84
2022-08-31T11:58:06.498Z,101613.91
2022-08-31T12:00:58.252Z,101608.00
2022-08-31T12:03:55.717Z,101613.13
2022-08-31T12:06:28.615Z,101594.84
2022-08-31T12:09:12.040Z,101595.28
2022-08-31T12:12:06.784Z,101600.78
2022-08-31T12:14:50.195Z,101592.16
2022-08-31T12:17:22.788Z,101585.75
2022-08-31T12:20:12.799Z,101588.50
2022-08-31T12:23:11.937Z,101590.16
2022-08-31T12:26:12.464Z,101585.41
2022-08-31T12:29:10.260Z,101582.19
2022-08-31T12:31:40.363Z,101581.06
2022-08-31T12:34:13.542Z,101577.84
2022-08-31T12:36:40.460Z,101565.66
2022-08-31T12:39:10.104Z,101587.84
2022-08-31T12:41:43.756Z,101573.19
2022-08-31T12:44:14.266Z,101577.16
2022-08-31T12:47:10.679Z,101577.16
2022-08-31T12:49:52.820Z,101572.41
2022-08-31T12:52:23.038Z,101582.31
2022-08-31T12:55:25.438Z,101582.69
2022-08-31T12:58:16.659Z,101571.22
2022-08-31T13:00:43.996Z,101577.94
2022-08-31T13:03:26.139Z,101568.41
2022-08-31T13:06:26.604Z,101566.47
2022-08-31T13:08:54.339Z,101568.78
2022-08-31T13:11:41.707Z,101559.69
2022-08-31T13:14:14.146Z,101565.56
2022-08-31T13:16:44.135Z,101550.94
2022-08-31T13:19:18.832Z,101551.31
2022-08-31T13:21:51.090Z,101555.75
2022-08-31T13:24:30.890Z,101564.84
2022-08-31T13:27:10.434Z,101564.50
2022-08-31T13:29:47.145Z,101552.56
2022-08-31T13:32:33.699Z,101547.00
2022-08-31T13:35:08.320Z,101556.91
2022-08-31T13:37:39.658Z,101551.00
2022-08-31T13:40:13.144Z,101552.19
2022-08-31T13:42:45.650Z,101551.41
2022-08-31T13:45:31.350Z,101543.06
2022-08-31T13:48:03.913Z,101534.72
2022-08-31T13:50:52.650Z,101541.06
2022-08-31T13:53:40.258Z,101541.88
2022-08-31T13:56:55.428Z,101538.72
2022-08-31T13:59:25.144Z,101537.94
2022-08-31T14:02:26.053Z,101530.69
2022-08-31T14:05:03.322Z,101517.31
2022-08-31T14:07:53.951Z,101528.78
2022-08-31T14:10:24.362Z,101524.84
2022-08-31T14:12:51.855Z,101518.88
2022-08-31T14:15:20.317Z,101524.69
2022-08-31T14:21:16.785Z,101524.56
2022-08-31T14:23:46.561Z,101518.44
2022-08-31T14:26:18.677Z,101529.06
2022-08-31T14:28:47.996Z,101516.75
2022-08-31T14:31:34.883Z,101510.66
2022-08-31T14:34:34.003Z,101504.06
2022-08-31T14:37:16.734Z,101505.50
2022-08-31T14:39:50.557Z,101494.66
2022-08-31T14:42:28.757Z,101503.72
2022-08-31T14:45:06.271Z,101499.34
2022-08-31T14:47:36.244Z,101498.50
2022-08-31T14:50:07.803Z,101493.72
2022-08-31T14:52:36.954Z,101492.34
2022-08-31T14:55:09.058Z,101493.75
2022-08-31T14:57:35.986Z,101484.94
2022-08-31T15:00:05.152Z,101495.28
2022-08-31T15:02:35.739Z,101496.84
2022-08-31T15:05:06.438Z,101502.00
2022-08-31T15:07:39.287Z,101493.28
2022-08-31T15:10:08.314Z,101490.81
2022-08-31T15:12:35.852Z,101494.50
2022-08-31T15:15:02.997Z,101489.31
2022-08-31T15:17:36.213Z,101496.94
2022-08-31T15:20:05.917Z,101485.25
2022-08-31T15:22:35.110Z,101484.19
2022-08-31T15:25:02.050Z,101488.84
2022-08-31T15:27:29.111Z,101492.00
2022-08-31T15:29:57.226Z,101501.09
2022-08-31T15:32:23.950Z,101494.16
2022-08-31T15:34:57.792Z,101489.19
2022-08-31T15:37:31.970Z,101505.56
2022-08-31T15:40:01.114Z,101500.44
2022-08-31T15:42:29.682Z,101497.13
2022-08-31T15:44:57.078Z,101496.94
2022-08-31T15:47:53.965Z,101491.72
2022-08-31T15:50:23.320Z,101487.09
2022-08-31T15:52:52.306Z,101486.72
2022-08-31T15:55:23.401Z,101489.03
2022-08-31T15:57:54.309Z,101492.34
2022-08-31T16:00:23.754Z,101494.16
2022-08-31T16:02:57.451Z,101488.91
2022-08-31T16:05:35.732Z,101490.81
2022-08-31T16:08:02.996Z,101493.06
2022-08-31T16:10:31.129Z,101495.41
2022-08-31T16:12:58.045Z,101492.63
2022-08-31T16:15:25.791Z,101482.28
2022-08-31T16:17:57.189Z,101486.31
2022-08-31T16:20:24.177Z,101479.81
2022-08-31T16:22:51.153Z,101480.03
2022-08-31T16:25:20.322Z,101466.63
2022-08-31T16:27:49.222Z,101460.50
2022-08-31T16:30:19.141Z,101463.94
2022-08-31T16:32:50.376Z,101463.59
2022-08-31T16:35:19.498Z,101459.25
2022-08-31T16:37:46.255Z,101457.97
2022-08-31T16:40:13.832Z,101457.38
2022-08-31T16:42:43.162Z,101458.50
2022-08-31T16:45:11.318Z,101465.97
2022-08-31T16:47:40.692Z,101460.63
2022-08-31T16:50:08.847Z,101459.00
2022-08-31T16:52:35.961Z,101460.94
2022-08-31T16:55:02.762Z,101457.81
2022-08-31T16:57:32.582Z,101456.22
2022-08-31T17:00:00.127Z,101450.28
2022-08-31T17:02:27.495Z,101456.03
2022-08-31T17:04:54.838Z,101450.66
2022-08-31T17:07:24.143Z,101461.81
2022-08-31T17:09:55.886Z,101456.63
2022-08-31T17:12:23.215Z,101457.44
2022-08-31T17:14:52.862Z,101457.44
2022-08-31T17:17:25.331Z,101466.56
2022-08-31T17:19:53.166Z,101461.66
2022-08-31T17:22:29.881Z,101459.03
2022-08-31T17:25:00.156Z,101461.31
2022-08-31T17:27:27.462Z,101467.69
2022-08-31T17:29:56.331Z,101465.25
2022-08-31T17:32:27.278Z,101466.84
2022-08-31T17:34:55.495Z,101474.13
2022-08-31T17:37:26.425Z,101484.41
2022-08-31T17:39:53.949Z,101480.09
2022-08-31T17:42:21.952Z,101480.09
2022-08-31T17:44:52.135Z,101479.66
2022-08-31T17:47:20.860Z,101480.09
2022-08-31T17:49:47.658Z,101485.63
2022-08-31T17:52:14.607Z,101488.41
2022-08-31T17:54:43.296Z,101486.81
2022-08-31T17:57:13.673Z,101491.53
2022-08-31T17:59:43.388Z,101485.66
2022-08-31T18:02:14.755Z,101489.22
2022-08-31T18:04:41.738Z,101493.53
2022-08-31T18:07:09.183Z,101491.97
2022-08-31T18:09:40.310Z,101494.75
2022-08-31T18:12:07.971Z,101493.97
2022-08-31T18:14:35.951Z,101509.00
2022-08-31T18:17:05.050Z,101499.88
2022-08-31T18:19:33.327Z,101498.31
2022-08-31T18:22:00.065Z,101504.63
2022-08-31T18:24:27.997Z,101503.88
2022-08-31T18:26:58.076Z,101505.44
2022-08-31T18:29:25.320Z,101521.31
2022-08-31T18:31:57.147Z,101515.34
2022-08-31T18:34:25.207Z,101518.94
2022-08-31T18:36:53.590Z,101523.28
2022-08-31T18:39:47.599Z,101524.47
2022-08-31T18:42:28.412Z,101527.59
2022-08-31T18:45:13.717Z,101520.47
2022-08-31T18:47:40.460Z,101525.59
2022-08-31T18:50:08.358Z,101533.50
2022-08-31T18:52:40.295Z,101533.13
2022-08-31T18:55:12.642Z,101538.19
2022-08-31T18:57:48.747Z,101535.09
2022-08-31T19:00:17.685Z,101540.59
2022-08-31T19:02:45.381Z,101543.34
2022-08-31T19:05:15.502Z,101544.78
2022-08-31T19:07:42.593Z,101547.56
2022-08-31T19:10:13.069Z,101539.28
2022-08-31T19:12:42.667Z,101545.31
2022-08-31T19:15:12.170Z,101543.25
2022-08-31T19:17:40.205Z,101544.13
2022-08-31T19:20:10.302Z,101541.66
2022-08-31T19:22:38.279Z,101545.22
2022-08-31T19:25:08.017Z,101534.16
2022-08-31T19:27:36.661Z,101545.91
2022-08-31T19:30:08.290Z,101551.78
2022-08-31T19:32:36.808Z,101550.09
2022-08-31T19:35:04.243Z,101543.63
2022-08-31T19:37:30.971Z,101558.53
2022-08-31T19:39:57.754Z,101553.22
2022-08-31T19:45:41.129Z,101557.00
2022-08-31T19:48:05.434Z,101557.00
2022-08-31T19:50:32.171Z,101567.59
2022-08-31T19:53:01.667Z,101559.75
2022-08-31T19:55:29.178Z,101559.44
2022-08-31T19:57:56.199Z,101560.03
2022-08-31T20:00:23.141Z,101557.31
2022-08-31T20:02:49.908Z,101561.34
2022-08-31T20:05:16.908Z,101570.13
2022-08-31T20:07:45.356Z,101557.06
2022-08-31T20:10:12.671Z,101558.53
2022-08-31T20:12:42.772Z,101564.78
2022-08-31T20:15:10.150Z,101558.63
2022-08-31T20:17:41.355Z,101561.56
2022-08-31T20:20:11.957Z,101555.22
2022-08-31T20:22:40.418Z,101558.81
2022-08-31T20:25:09.124Z,101562.34
2022-08-31T20:27:37.894Z,101551.97
2022-08-31T20:30:05.631Z,101563.44
2022-08-31T20:32:34.926Z,101548.22
2022-08-31T20:35:02.557Z,101559.53
2022-08-31T20:37:29.736Z,101566.06
2022-08-31T20:39:56.840Z,101559.88
2022-08-31T20:42:26.633Z,101562.56
2022-08-31T20:44:59.919Z,101555.94
2022-08-31T20:47:47.706Z,101560.38
2022-08-31T20:50:15.353Z,101553.41
2022-08-31T20:52:42.519Z,101559.91
2022-08-31T20:55:12.412Z,101559.16
2022-08-31T20:57:42.166Z,101553.75
2022-08-31T21:00:10.596Z,101558.97
2022-08-31T21:02:41.074Z,101561.25
2022-08-31T21:07:58.011Z,101555.66
2022-08-31T21:10:36.883Z,101560.78
2022-08-31T21:13:09.275Z,101551.63
2022-08-31T21:15:41.917Z,101546.47
2022-08-31T21:18:08.871Z,101548.44
2022-08-31T21:20:35.602Z,101551.88
2022-08-31T21:23:02.515Z,101553.69
2022-08-31T21:25:29.598Z,101560.31
2022-08-31T21:27:56.940Z,101557.41
2022-08-31T21:30:24.711Z,101558.78
2022-08-31T21:32:52.618Z,101555.19
2022-08-31T21:35:20.396Z,101553.53
2022-08-31T21:37:47.189Z,101568.44
2022-08-31T21:40:14.095Z,101566.34
2022-08-31T21:42:40.979Z,101566.19
2022-08-31T21:45:08.027Z,101563.44
2022-08-31T21:47:34.961Z,101558.69
2022-08-31T21:50:01.813Z,101562.84
2022-08-31T21:52:29.224Z,101562.44
2022-08-31T21:54:56.256Z,101556.03
2022-08-31T21:57:23.654Z,101562.56
2022-08-31T21:59:51.121Z,101562.16
2022-08-31T22:02:18.011Z,101571.22
2022-08-31T22:04:45.037Z,101560.97
2022-08-31T22:07:14.470Z,101563.16
2022-08-31T22:09:43.269Z,101560.09
2022-08-31T22:12:12.510Z,101555.53
2022-08-31T22:14:41.382Z,101554.53
2022-08-31T22:17:09.416Z,101556.09
2022-08-31T22:19:39.083Z,101551.97
2022-08-31T22:22:12.204Z,101558.03
2022-08-31T22:24:58.407Z,101564.91
2022-08-31T22:27:25.725Z,101566.50
2022-08-31T22:29:52.730Z,101566.28
2022-08-31T22:32:19.516Z,101568.66
2022-08-31T22:34:46.710Z,101565.66
2022-08-31T22:37:14.254Z,101567.09
2022-08-31T22:39:42.564Z,101565.13
2022-08-31T22:42:09.985Z,101555.63
2022-08-31T22:44:37.746Z,101559.69
2022-08-31T22:47:05.001Z,101559.75
2022-08-31T22:49:32.186Z,101562.00
2022-08-31T22:51:58.965Z,101561.84
2022-08-31T22:54:27.118Z,101560.41
2022-08-31T22:56:54.591Z,101561.84
2022-08-31T22:59:27.367Z,101563.69
2022-08-31T23:01:59.266Z,101554.81
2022-08-31T23:04:27.702Z,101549.75
2022-08-31T23:06:57.647Z,101564.78
2022-08-31T23:09:27.866Z,101556.31
2022-08-31T23:11:56.039Z,101553.88
2022-08-31T23:14:24.359Z,101556.34
2022-08-31T23:16:57.932Z,101552.69
2022-08-31T23:19:33.391Z,101556.84
2022-08-31T23:22:00.930Z,101549.81
2022-08-31T23:24:30.916Z,101559.56
2022-08-31T23:27:03.797Z,101561.25
2022-08-31T23:29:34.476Z,101560.03
2022-08-31T23:32:01.508Z,101558.97
2022-08-31T23:34:28.363Z,101550.44
2022-08-31T23:36:55.647Z,101556.78
2022-08-31T23:39:23.668Z,101563.22
2022-08-31T23:41:51.028Z,101563.63
2022-08-31T23:44:20.530Z,101549.53
2022-08-31T23:46:49.211Z,101556.50
2022-08-31T23:49:18.740Z,101549.88
2022-08-31T23:51:45.997Z,101551.66
2022-08-31T23:54:15.813Z,101545.88
2022-08-31T23:56:45.971Z,101545.53
2022-08-31T23:59:18.812Z,101549.84
